createdAt,value
2023-05-01T00:00:59.539Z,478.00
2023-05-01T00:01:59.591Z,478.00
2023-05-01T00:02:59.760Z,474.00
2023-05-01T00:03:59.793Z,472.00
2023-05-01T00:04:59.735Z,473.00
2023-05-01T00:05:59.756Z,475.00
2023-05-01T00:06:59.803Z,477.00
2023-05-01T00:07:59.849Z,477.00
2023-05-01T00:08:59.898Z,479.00
2023-05-01T00:09:59.941Z,480.00
2023-05-01T00:10:59.982Z,478.00
2023-05-01T00:12:00.037Z,478.00
2023-05-01T00:13:00.925Z,481.00
2023-05-01T00:14:00.136Z,480.00
2023-05-01T00:15:00.213Z,479.00
2023-05-01T00:16:00.246Z,478.00
2023-05-01T00:17:00.329Z,480.00
2023-05-01T00:18:00.399Z,479.00
2023-05-01T00:19:00.348Z,478.00
2023-05-01T00:20:00.400Z,480.00
2023-05-01T00:21:00.452Z,481.00
2023-05-01T00:22:00.490Z,482.00
2023-05-01T00:23:00.522Z,481.00
2023-05-01T00:24:01.429Z,481.00
2023-05-01T00:25:00.638Z,479.00
2023-05-01T00:26:00.654Z,480.00
2023-05-01T00:27:00.732Z,479.00
2023-05-01T00:28:00.774Z,479.00
2023-05-01T00:29:00.805Z,479.00
2023-05-01T00:30:01.104Z,480.00
2023-05-01T00:31:00.922Z,480.00
2023-05-01T00:32:00.989Z,478.00
2023-05-01T00:33:01.068Z,480.00
2023-05-01T00:34:01.059Z,482.00
2023-05-01T00:35:01.099Z,483.00
2023-05-01T00:36:01.149Z,480.00
2023-05-01T00:37:01.193Z,479.00
2023-05-01T00:38:01.308Z,480.00
2023-05-01T00:39:01.291Z,478.00
2023-05-01T00:40:01.415Z,479.00
2023-05-01T00:41:01.394Z,479.00
2023-05-01T00:42:01.449Z,481.00
2023-05-01T00:43:01.478Z,482.00
2023-05-01T00:44:01.530Z,484.00
2023-05-01T00:45:01.581Z,487.00
2023-05-01T00:46:01.661Z,485.00
2023-05-01T00:47:01.688Z,484.00
2023-05-01T00:48:01.783Z,478.00
2023-05-01T00:49:01.855Z,480.00
2023-05-01T00:50:01.864Z,481.00
2023-05-01T00:51:01.874Z,480.00
2023-05-01T00:52:01.942Z,479.00
2023-05-01T00:53:01.978Z,479.00
2023-05-01T00:54:02.011Z,477.00
2023-05-01T00:55:02.057Z,477.00
2023-05-01T00:56:02.108Z,476.00
2023-05-01T00:57:02.184Z,477.00
2023-05-01T00:58:02.198Z,475.00
2023-05-01T00:59:02.309Z,472.00
2023-05-01T01:00:02.325Z,472.00
2023-05-01T01:01:02.354Z,473.00
2023-05-01T01:02:02.378Z,477.00
2023-05-01T01:03:02.550Z,479.00
2023-05-01T01:04:02.527Z,479.00
2023-05-01T01:05:02.575Z,480.00
2023-05-01T01:06:02.595Z,480.00
2023-05-01T01:07:02.606Z,479.00
2023-05-01T01:08:02.648Z,480.00
2023-05-01T01:09:02.681Z,482.00
2023-05-01T01:10:02.745Z,481.00
2023-05-01T01:11:02.772Z,480.00
2023-05-01T01:12:02.835Z,476.00
2023-05-01T01:13:02.879Z,475.00
2023-05-01T01:14:02.895Z,477.00
2023-05-01T01:15:02.934Z,474.00
2023-05-01T01:16:02.990Z,474.00
2023-05-01T01:17:03.086Z,476.00
2023-05-01T01:18:03.123Z,476.00
2023-05-01T01:19:03.119Z,476.00
2023-05-01T01:20:03.156Z,474.00
2023-05-01T01:21:03.209Z,475.00
2023-05-01T01:22:03.229Z,474.00
2023-05-01T01:23:03.276Z,471.00
2023-05-01T01:24:03.342Z,469.00
2023-05-01T01:25:03.382Z,472.00
2023-05-01T01:26:03.416Z,474.00
2023-05-01T01:27:03.466Z,476.00
2023-05-01T01:28:03.526Z,477.00
2023-05-01T01:29:03.556Z,479.00
2023-05-01T01:30:03.613Z,477.00
2023-05-01T01:31:03.734Z,475.00
2023-05-01T01:32:03.962Z,475.00
2023-05-01T01:33:03.805Z,475.00
2023-05-01T01:34:03.788Z,477.00
2023-05-01T01:35:03.837Z,480.00
2023-05-01T01:36:03.884Z,479.00
2023-05-01T01:37:03.938Z,479.00
2023-05-01T01:38:03.979Z,474.00
2023-05-01T01:39:04.029Z,471.00
2023-05-01T01:40:04.072Z,469.00
2023-05-01T01:41:04.130Z,470.00
2023-05-01T01:42:04.181Z,471.00
2023-05-01T01:43:04.287Z,475.00
2023-05-01T01:44:04.275Z,475.00
2023-05-01T01:45:04.313Z,473.00
2023-05-01T01:46:04.424Z,474.00
2023-05-01T01:47:04.426Z,476.00
2023-05-01T01:48:04.518Z,477.00
2023-05-01T01:49:04.512Z,478.00
2023-05-01T01:50:04.549Z,478.00
2023-05-01T01:51:04.669Z,477.00
2023-05-01T01:52:04.650Z,474.00
2023-05-01T01:53:04.758Z,474.00
2023-05-01T01:54:04.746Z,473.00
2023-05-01T01:55:04.787Z,472.00
2023-05-01T01:56:04.837Z,473.00
2023-05-01T01:57:04.888Z,475.00
2023-05-01T01:58:05.035Z,476.00
2023-05-01T01:59:04.953Z,475.00
2023-05-01T02:00:04.992Z,474.00
2023-05-01T02:01:05.043Z,472.00
2023-05-01T02:02:05.409Z,472.00
2023-05-01T02:03:05.214Z,469.00
2023-05-01T02:04:05.234Z,468.00
2023-05-01T02:05:05.217Z,470.00
2023-05-01T02:06:05.325Z,471.00
2023-05-01T02:07:05.272Z,475.00
2023-05-01T02:08:05.406Z,473.00
2023-05-01T02:09:05.311Z,473.00
2023-05-01T02:10:05.343Z,473.00
2023-05-01T02:11:05.372Z,472.00
2023-05-01T02:12:05.387Z,473.00
2023-05-01T02:13:06.037Z,473.00
2023-05-01T02:14:05.442Z,470.00
2023-05-01T02:15:05.469Z,472.00
2023-05-01T02:16:05.576Z,470.00
2023-05-01T02:17:05.544Z,468.00
2023-05-01T02:18:05.630Z,470.00
2023-05-01T02:19:05.581Z,473.00
2023-05-01T02:20:05.640Z,473.00
2023-05-01T02:21:05.661Z,471.00
2023-05-01T02:22:05.683Z,472.00
2023-05-01T02:23:05.726Z,471.00
2023-05-01T02:24:05.753Z,470.00
2023-05-01T02:25:05.775Z,470.00
2023-05-01T02:26:05.798Z,473.00
2023-05-01T02:27:05.848Z,473.00
2023-05-01T02:28:05.855Z,469.00
2023-05-01T02:29:05.892Z,470.00
2023-05-01T02:30:05.917Z,472.00
2023-05-01T02:31:05.967Z,473.00
2023-05-01T02:32:06.023Z,475.00
2023-05-01T02:33:06.058Z,472.00
2023-05-01T02:34:06.103Z,475.00
2023-05-01T02:35:06.103Z,477.00
2023-05-01T02:36:06.153Z,479.00
2023-05-01T02:37:06.145Z,479.00
2023-05-01T02:38:06.181Z,479.00
2023-05-01T02:39:06.226Z,477.00
2023-05-01T02:40:06.254Z,477.00
2023-05-01T02:41:06.274Z,478.00
2023-05-01T02:42:06.296Z,478.00
2023-05-01T02:43:06.329Z,476.00
2023-05-01T02:44:06.344Z,473.00
2023-05-01T02:45:06.373Z,471.00
2023-05-01T02:46:06.530Z,472.00
2023-05-01T02:47:06.477Z,475.00
2023-05-01T02:48:06.506Z,474.00
2023-05-01T02:49:06.521Z,475.00
2023-05-01T02:50:06.522Z,475.00
2023-05-01T02:51:06.564Z,475.00
2023-05-01T02:52:06.590Z,477.00
2023-05-01T02:53:06.625Z,479.00
2023-05-01T02:54:06.646Z,475.00
2023-05-01T02:55:06.762Z,476.00
2023-05-01T02:56:06.719Z,474.00
2023-05-01T02:57:06.743Z,471.00
2023-05-01T02:58:06.779Z,471.00
2023-05-01T02:59:06.806Z,472.00
2023-05-01T03:00:06.835Z,472.00
2023-05-01T03:01:06.897Z,468.00
2023-05-01T03:02:06.902Z,469.00
2023-05-01T03:03:07.023Z,467.00
2023-05-01T03:04:06.970Z,465.00
2023-05-01T03:05:06.973Z,467.00
2023-05-01T03:06:07.088Z,465.00
2023-05-01T03:07:07.037Z,467.00
2023-05-01T03:08:07.073Z,467.00
2023-05-01T03:09:07.108Z,466.00
2023-05-01T03:10:07.119Z,466.00
2023-05-01T03:11:07.162Z,465.00
2023-05-01T03:12:07.166Z,464.00
2023-05-01T03:13:07.255Z,467.00
2023-05-01T03:14:07.238Z,465.00
2023-05-01T03:15:07.271Z,464.00
2023-05-01T03:16:07.391Z,464.00
2023-05-01T03:17:07.322Z,464.00
2023-05-01T03:18:07.417Z,463.00
2023-05-01T03:19:07.408Z,462.00
2023-05-01T03:20:07.424Z,464.00
2023-05-01T03:21:07.450Z,465.00
2023-05-01T03:22:07.488Z,463.00
2023-05-01T03:23:07.522Z,463.00
2023-05-01T03:24:07.547Z,465.00
2023-05-01T03:25:07.675Z,466.00
2023-05-01T03:26:07.624Z,464.00
2023-05-01T03:27:07.637Z,462.00
2023-05-01T03:28:07.673Z,463.00
2023-05-01T03:29:08.493Z,463.00
2023-05-01T03:30:07.719Z,464.00
2023-05-01T03:31:07.760Z,463.00
2023-05-01T03:32:07.848Z,464.00
2023-05-01T03:33:07.851Z,464.00
2023-05-01T03:34:07.838Z,464.00
2023-05-01T03:35:07.974Z,465.00
2023-05-01T03:36:07.899Z,466.00
2023-05-01T03:37:08.013Z,466.00
2023-05-01T03:38:07.992Z,468.00
2023-05-01T03:39:08.995Z,468.00
2023-05-01T03:40:08.159Z,467.00
2023-05-01T03:41:08.160Z,466.00
2023-05-01T03:42:08.199Z,466.00
2023-05-01T03:43:08.244Z,464.00
2023-05-01T03:44:08.301Z,463.00
2023-05-01T03:45:08.434Z,461.00
2023-05-01T03:46:08.421Z,462.00
2023-05-01T03:47:08.441Z,461.00
2023-05-01T03:48:08.538Z,460.00
2023-05-01T03:49:08.544Z,461.00
2023-05-01T03:50:08.605Z,463.00
2023-05-01T03:51:08.655Z,465.00
2023-05-01T03:52:08.708Z,462.00
2023-05-01T03:53:08.748Z,465.00
2023-05-01T03:54:08.794Z,467.00
2023-05-01T03:55:08.848Z,466.00
2023-05-01T03:56:08.894Z,466.00
2023-05-01T03:57:09.013Z,467.00
2023-05-01T03:58:08.974Z,469.00
2023-05-01T03:59:09.025Z,468.00
2023-05-01T04:00:09.082Z,466.00
2023-05-01T04:01:09.127Z,465.00
2023-05-01T04:02:09.225Z,465.00
2023-05-01T04:03:09.272Z,463.00
2023-05-01T04:04:09.300Z,463.00
2023-05-01T04:05:09.315Z,462.00
2023-05-01T04:06:09.557Z,461.00
2023-05-01T04:07:09.415Z,461.00
2023-05-01T04:08:09.452Z,461.00
2023-05-01T04:09:09.510Z,463.00
2023-05-01T04:10:09.573Z,464.00
2023-05-01T04:11:09.600Z,465.00
2023-05-01T04:12:09.638Z,463.00
2023-05-01T04:13:09.692Z,461.00
2023-05-01T04:14:09.742Z,460.00
2023-05-01T04:15:09.804Z,458.00
2023-05-01T04:16:09.853Z,459.00
2023-05-01T04:17:10.584Z,462.00
2023-05-01T04:18:09.970Z,463.00
2023-05-01T04:19:09.980Z,466.00
2023-05-01T04:20:10.023Z,468.00
2023-05-01T04:21:10.083Z,469.00
2023-05-01T04:22:10.132Z,469.00
2023-05-01T04:23:10.171Z,468.00
2023-05-01T04:24:10.229Z,466.00
2023-05-01T04:25:10.280Z,466.00
2023-05-01T04:26:10.349Z,464.00
2023-05-01T04:27:10.393Z,463.00
2023-05-01T04:28:11.017Z,464.00
2023-05-01T04:29:10.481Z,462.00
2023-05-01T04:30:10.543Z,461.00
2023-05-01T04:31:10.631Z,460.00
2023-05-01T04:32:10.650Z,460.00
2023-05-01T04:33:10.747Z,461.00
2023-05-01T04:34:10.785Z,465.00
2023-05-01T04:35:10.828Z,465.00
2023-05-01T04:36:10.876Z,466.00
2023-05-01T04:37:10.928Z,466.00
2023-05-01T04:38:10.977Z,468.00
2023-05-01T04:39:11.034Z,466.00
2023-05-01T04:40:11.677Z,466.00
2023-05-01T04:41:11.133Z,465.00
2023-05-01T04:42:11.194Z,468.00
2023-05-01T04:43:11.243Z,470.00
2023-05-01T04:44:11.302Z,464.00
2023-05-01T04:45:11.362Z,461.00
2023-05-01T04:46:11.450Z,458.00
2023-05-01T04:47:11.581Z,460.00
2023-05-01T04:48:11.729Z,459.00
2023-05-01T04:49:11.577Z,461.00
2023-05-01T04:50:11.714Z,464.00
2023-05-01T04:51:11.706Z,466.00
2023-05-01T04:52:11.755Z,466.00
2023-05-01T04:53:11.803Z,468.00
2023-05-01T04:54:11.846Z,471.00
2023-05-01T04:55:11.901Z,473.00
2023-05-01T04:56:11.953Z,474.00
2023-05-01T04:57:12.045Z,474.00
2023-05-01T04:58:12.049Z,473.00
2023-05-01T04:59:12.535Z,473.00
2023-05-01T05:00:12.181Z,472.00
2023-05-01T05:01:12.333Z,469.00
2023-05-01T05:02:12.274Z,467.00
2023-05-01T05:03:12.424Z,466.00
2023-05-01T05:04:12.431Z,466.00
2023-05-01T05:05:12.437Z,465.00
2023-05-01T05:06:12.514Z,464.00
2023-05-01T05:07:12.556Z,466.00
2023-05-01T05:08:12.606Z,467.00
2023-05-01T05:09:12.654Z,466.00
2023-05-01T05:10:12.727Z,464.00
2023-05-01T05:11:12.762Z,464.00
2023-05-01T05:12:12.821Z,467.00
2023-05-01T05:13:12.879Z,468.00
2023-05-01T05:14:12.933Z,471.00
2023-05-01T05:15:12.998Z,471.00
2023-05-01T05:16:13.273Z,470.00
2023-05-01T05:17:13.107Z,468.00
2023-05-01T05:18:13.199Z,468.00
2023-05-01T05:19:13.213Z,470.00
2023-05-01T05:20:13.273Z,471.00
2023-05-01T05:21:13.315Z,469.00
2023-05-01T05:22:13.390Z,467.00
2023-05-01T05:23:13.435Z,468.00
2023-05-01T05:24:13.489Z,468.00
2023-05-01T05:25:13.553Z,467.00
2023-05-01T05:26:13.595Z,468.00
2023-05-01T05:27:13.662Z,465.00
2023-05-01T05:28:13.703Z,465.00
2023-05-01T05:29:13.772Z,464.00
2023-05-01T05:30:13.858Z,463.00
2023-05-01T05:31:13.913Z,464.00
2023-05-01T05:32:14.023Z,465.00
2023-05-01T05:33:14.082Z,465.00
2023-05-01T05:34:14.071Z,464.00
2023-05-01T05:35:14.118Z,463.00
2023-05-01T05:36:14.188Z,464.00
2023-05-01T05:37:14.242Z,466.00
2023-05-01T05:38:14.297Z,466.00
2023-05-01T05:39:14.357Z,469.00
2023-05-01T05:40:14.437Z,470.00
2023-05-01T05:41:14.471Z,469.00
2023-05-01T05:42:14.526Z,470.00
2023-05-01T05:43:14.583Z,471.00
2023-05-01T05:44:14.658Z,473.00
2023-05-01T05:45:14.708Z,472.00
2023-05-01T05:46:14.799Z,470.00
2023-05-01T05:47:14.875Z,470.00
2023-05-01T05:48:14.937Z,470.00
2023-05-01T05:49:14.933Z,469.00
2023-05-01T05:50:14.991Z,468.00
2023-05-01T05:51:15.060Z,469.00
2023-05-01T05:52:15.119Z,468.00
2023-05-01T05:53:15.162Z,465.00
2023-05-01T05:54:15.228Z,467.00
2023-05-01T05:55:15.313Z,470.00
2023-05-01T05:56:15.349Z,472.00
2023-05-01T05:57:15.403Z,473.00
2023-05-01T05:58:15.459Z,471.00
2023-05-01T05:59:17.286Z,470.00
2023-05-01T06:00:15.572Z,468.00
2023-05-01T06:01:15.629Z,466.00
2023-05-01T06:02:15.729Z,465.00
2023-05-01T06:03:15.829Z,466.00
2023-05-01T06:04:15.806Z,465.00
2023-05-01T06:05:15.924Z,466.00
2023-05-01T06:06:15.976Z,470.00
2023-05-01T06:07:16.000Z,472.00
2023-05-01T06:08:16.088Z,471.00
2023-05-01T06:09:16.197Z,470.00
2023-05-01T06:10:16.163Z,471.00
2023-05-01T06:11:16.226Z,471.00
2023-05-01T06:12:16.287Z,471.00
2023-05-01T06:13:16.335Z,469.00
2023-05-01T06:14:16.382Z,466.00
2023-05-01T06:15:16.457Z,467.00
2023-05-01T06:16:16.553Z,469.00
2023-05-01T06:17:16.552Z,468.00
2023-05-01T06:18:16.695Z,466.00
2023-05-01T06:19:16.651Z,466.00
2023-05-01T06:20:16.704Z,464.00
2023-05-01T06:21:17.600Z,464.00
2023-05-01T06:22:16.821Z,462.00
2023-05-01T06:23:16.866Z,464.00
2023-05-01T06:24:16.922Z,462.00
2023-05-01T06:25:17.004Z,462.00
2023-05-01T06:26:17.024Z,461.00
2023-05-01T06:27:17.086Z,461.00
2023-05-01T06:28:17.231Z,459.00
2023-05-01T06:29:17.195Z,459.00
2023-05-01T06:30:17.249Z,461.00
2023-05-01T06:31:17.380Z,459.00
2023-05-01T06:32:17.363Z,462.00
2023-05-01T06:33:17.410Z,464.00
2023-05-01T06:34:17.473Z,465.00
2023-05-01T06:35:17.607Z,466.00
2023-05-01T06:36:17.578Z,467.00
2023-05-01T06:37:17.637Z,466.00
2023-05-01T06:38:17.686Z,464.00
2023-05-01T06:39:17.769Z,463.00
2023-05-01T06:40:17.796Z,465.00
2023-05-01T06:41:17.947Z,465.00
2023-05-01T06:42:17.897Z,462.00
2023-05-01T06:43:18.028Z,461.00
2023-05-01T06:44:18.010Z,460.00
2023-05-01T06:45:18.145Z,460.00
2023-05-01T06:46:18.157Z,458.00
2023-05-01T06:47:18.177Z,460.00
2023-05-01T06:48:18.221Z,462.00
2023-05-01T06:49:18.281Z,460.00
2023-05-01T06:50:18.335Z,459.00
2023-05-01T06:51:18.390Z,457.00
2023-05-01T06:52:18.445Z,455.00
2023-05-01T06:53:18.510Z,458.00
2023-05-01T06:54:18.544Z,459.00
2023-05-01T06:55:18.604Z,459.00
2023-05-01T06:56:18.654Z,459.00
2023-05-01T06:57:18.766Z,458.00
2023-05-01T06:58:24.107Z,458.00
2023-05-01T06:59:19.754Z,459.00
2023-05-01T07:00:21.582Z,460.00
2023-05-01T07:01:18.780Z,458.00
2023-05-01T07:02:18.803Z,457.00
2023-05-01T07:03:18.863Z,457.00
2023-05-01T07:04:18.720Z,456.00
2023-05-01T07:05:18.714Z,453.00
2023-05-01T07:06:18.748Z,451.00
2023-05-01T07:07:18.715Z,450.00
2023-05-01T07:08:18.690Z,451.00
2023-05-01T07:09:18.681Z,451.00
2023-05-01T07:10:18.667Z,454.00
2023-05-01T07:11:18.665Z,455.00
2023-05-01T07:12:18.673Z,456.00
2023-05-01T07:13:18.648Z,457.00
2023-05-01T07:14:18.653Z,459.00
2023-05-01T07:15:18.654Z,461.00
2023-05-01T07:16:18.671Z,459.00
2023-05-01T07:17:18.823Z,457.00
2023-05-01T07:18:18.630Z,454.00
2023-05-01T07:19:18.619Z,455.00
2023-05-01T07:20:18.612Z,458.00
2023-05-01T07:21:18.598Z,458.00
2023-05-01T07:22:18.597Z,459.00
2023-05-01T07:23:18.573Z,459.00
2023-05-01T07:24:18.574Z,457.00
2023-05-01T07:25:18.600Z,458.00
2023-05-01T07:26:18.636Z,457.00
2023-05-01T07:27:18.546Z,453.00
2023-05-01T07:28:18.549Z,454.00
2023-05-01T07:29:18.626Z,455.00
2023-05-01T07:30:18.522Z,456.00
2023-05-01T07:31:18.555Z,455.00
2023-05-01T07:32:18.568Z,456.00
2023-05-01T07:33:19.125Z,455.00
2023-05-01T07:34:18.479Z,455.00
2023-05-01T07:35:18.456Z,456.00
2023-05-01T07:36:18.508Z,457.00
2023-05-01T07:37:18.463Z,459.00
2023-05-01T07:38:18.447Z,463.00
2023-05-01T07:39:18.420Z,464.00
2023-05-01T07:40:18.430Z,465.00
2023-05-01T07:41:18.530Z,463.00
2023-05-01T07:42:18.515Z,461.00
2023-05-01T07:43:18.581Z,460.00
2023-05-01T07:44:18.630Z,462.00
2023-05-01T07:45:18.661Z,461.00
2023-05-01T07:46:18.841Z,458.00
2023-05-01T07:47:18.783Z,455.00
2023-05-01T07:48:18.804Z,455.00
2023-05-01T07:49:18.850Z,454.00
2023-05-01T07:50:18.905Z,456.00
2023-05-01T07:51:18.959Z,457.00
2023-05-01T07:52:19.006Z,459.00
2023-05-01T07:53:19.049Z,459.00
2023-05-01T07:54:19.106Z,463.00
2023-05-01T07:55:19.172Z,463.00
2023-05-01T07:56:19.201Z,460.00
2023-05-01T07:57:19.271Z,462.00
2023-05-01T07:58:19.299Z,463.00
2023-05-01T07:59:19.379Z,463.00
2023-05-01T08:00:19.407Z,461.00
2023-05-01T08:01:19.484Z,459.00
2023-05-01T08:02:19.558Z,458.00
2023-05-01T08:03:19.805Z,458.00
2023-05-01T08:04:19.701Z,457.00
2023-05-01T08:05:19.651Z,457.00
2023-05-01T08:06:19.795Z,458.00
2023-05-01T08:07:19.784Z,460.00
2023-05-01T08:08:19.820Z,459.00
2023-05-01T08:09:19.872Z,459.00
2023-05-01T08:10:19.914Z,460.00
2023-05-01T08:11:19.979Z,458.00
2023-05-01T08:12:20.040Z,455.00
2023-05-01T08:13:20.088Z,454.00
2023-05-01T08:14:20.129Z,455.00
2023-05-01T08:15:20.192Z,456.00
2023-05-01T08:16:22.207Z,457.00
2023-05-01T08:17:20.313Z,458.00
2023-05-01T08:18:20.505Z,458.00
2023-05-01T08:19:20.383Z,456.00
2023-05-01T08:20:20.437Z,454.00
2023-05-01T08:21:20.486Z,454.00
2023-05-01T08:22:20.546Z,454.00
2023-05-01T08:23:21.109Z,453.00
2023-05-01T08:24:20.631Z,453.00
2023-05-01T08:25:20.700Z,453.00
2023-05-01T08:26:22.443Z,450.00
2023-05-01T08:27:20.781Z,450.00
2023-05-01T08:28:20.958Z,449.00
2023-05-01T08:29:20.874Z,452.00
2023-05-01T08:30:20.917Z,456.00
2023-05-01T08:31:20.977Z,456.00
2023-05-01T08:32:21.012Z,455.00
2023-05-01T08:33:21.064Z,456.00
2023-05-01T08:34:21.120Z,455.00
2023-05-01T08:35:21.165Z,455.00
2023-05-01T08:36:22.116Z,454.00
2023-05-01T08:37:21.253Z,454.00
2023-05-01T08:38:21.287Z,454.00
2023-05-01T08:39:21.337Z,454.00
2023-05-01T08:40:21.386Z,457.00
2023-05-01T08:41:21.426Z,457.00
2023-05-01T08:42:21.465Z,455.00
2023-05-01T08:43:21.496Z,456.00
2023-05-01T08:44:21.561Z,456.00
2023-05-01T08:45:21.582Z,458.00
2023-05-01T08:46:21.682Z,460.00
2023-05-01T08:47:21.825Z,461.00
2023-05-01T08:48:21.716Z,460.00
2023-05-01T08:49:21.737Z,460.00
2023-05-01T08:50:21.990Z,457.00
2023-05-01T08:51:21.816Z,460.00
2023-05-01T08:52:21.852Z,460.00
2023-05-01T08:53:21.902Z,464.00
2023-05-01T08:54:21.933Z,465.00
2023-05-01T08:55:21.968Z,463.00
2023-05-01T08:56:21.993Z,461.00
2023-05-01T08:57:22.129Z,462.00
2023-05-01T08:58:22.112Z,462.00
2023-05-01T08:59:22.107Z,459.00
2023-05-01T09:00:22.208Z,461.00
2023-05-01T09:01:22.195Z,460.00
2023-05-01T09:02:22.312Z,458.00
2023-05-01T09:03:22.413Z,458.00
2023-05-01T09:04:22.391Z,457.00
2023-05-01T09:05:22.326Z,456.00
2023-05-01T09:06:22.409Z,456.00
2023-05-01T09:07:22.414Z,456.00
2023-05-01T09:08:22.457Z,457.00
2023-05-01T09:09:22.501Z,457.00
2023-05-01T09:10:22.556Z,459.00
2023-05-01T09:11:22.554Z,459.00
2023-05-01T09:12:22.595Z,458.00
2023-05-01T09:13:22.625Z,458.00
2023-05-01T09:14:22.649Z,460.00
2023-05-01T09:15:22.694Z,460.00
2023-05-01T09:16:22.780Z,458.00
2023-05-01T09:17:22.765Z,458.00
2023-05-01T09:18:22.769Z,457.00
2023-05-01T09:19:22.802Z,455.00
2023-05-01T09:20:22.880Z,455.00
2023-05-01T09:21:22.858Z,455.00
2023-05-01T09:22:22.877Z,456.00
2023-05-01T09:23:22.928Z,459.00
2023-05-01T09:24:22.934Z,459.00
2023-05-01T09:25:22.970Z,458.00
2023-05-01T09:26:23.050Z,460.00
2023-05-01T09:27:23.039Z,459.00
2023-05-01T09:28:23.065Z,459.00
2023-05-01T09:29:23.090Z,461.00
2023-05-01T09:30:23.144Z,461.00
2023-05-01T09:31:23.234Z,461.00
2023-05-01T09:32:23.321Z,459.00
2023-05-01T09:33:23.232Z,460.00
2023-05-01T09:34:23.209Z,460.00
2023-05-01T09:35:23.238Z,458.00
2023-05-01T09:36:23.264Z,460.00
2023-05-01T09:37:23.279Z,459.00
2023-05-01T09:38:23.378Z,461.00
2023-05-01T09:39:23.329Z,462.00
2023-05-01T09:40:23.361Z,462.00
2023-05-01T09:41:23.417Z,459.00
2023-05-01T09:42:23.412Z,461.00
2023-05-01T09:43:23.446Z,460.00
2023-05-01T09:44:23.458Z,457.00
2023-05-01T09:45:23.494Z,459.00
2023-05-01T09:46:23.535Z,463.00
2023-05-01T09:47:23.558Z,461.00
2023-05-01T09:48:23.545Z,461.00
2023-05-01T09:49:23.562Z,460.00
2023-05-01T09:50:23.597Z,460.00
2023-05-01T09:51:23.625Z,460.00
2023-05-01T09:52:24.140Z,460.00
2023-05-01T09:53:23.656Z,457.00
2023-05-01T09:54:24.642Z,454.00
2023-05-01T09:55:25.604Z,454.00
2023-05-01T09:56:23.709Z,452.00
2023-05-01T09:57:23.735Z,454.00
2023-05-01T09:58:23.772Z,457.00
2023-05-01T09:59:23.762Z,459.00
2023-05-01T10:00:23.797Z,456.00
2023-05-01T10:01:23.875Z,455.00
2023-05-01T10:02:24.005Z,456.00
2023-05-01T10:03:24.017Z,453.00
2023-05-01T10:04:23.865Z,451.00
2023-05-01T10:05:23.889Z,450.00
2023-05-01T10:06:23.930Z,450.00
2023-05-01T10:07:23.910Z,450.00
2023-05-01T10:08:23.929Z,452.00
2023-05-01T10:09:23.953Z,453.00
2023-05-01T10:10:23.969Z,452.00
2023-05-01T10:11:23.993Z,455.00
2023-05-01T10:12:23.994Z,456.00
2023-05-01T10:13:24.033Z,457.00
2023-05-01T10:14:24.219Z,459.00
2023-05-01T10:15:26.020Z,458.00
2023-05-01T10:16:24.113Z,459.00
2023-05-01T10:17:24.170Z,461.00
2023-05-01T10:18:24.134Z,460.00
2023-05-01T10:19:24.141Z,457.00
2023-05-01T10:20:24.154Z,455.00
2023-05-01T10:21:24.163Z,454.00
2023-05-01T10:22:24.185Z,452.00
2023-05-01T10:23:24.207Z,452.00
2023-05-01T10:24:24.225Z,451.00
2023-05-01T10:25:24.238Z,450.00
2023-05-01T10:26:24.244Z,453.00
2023-05-01T10:27:24.264Z,453.00
2023-05-01T10:28:24.283Z,455.00
2023-05-01T10:29:24.305Z,457.00
2023-05-01T10:30:24.299Z,456.00
2023-05-01T10:31:24.354Z,455.00
2023-05-01T10:32:25.205Z,456.00
2023-05-01T10:33:24.359Z,454.00
2023-05-01T10:34:26.254Z,456.00
2023-05-01T10:35:24.383Z,456.00
2023-05-01T10:36:24.363Z,456.00
2023-05-01T10:37:24.380Z,454.00
2023-05-01T10:38:24.358Z,453.00
2023-05-01T10:39:24.344Z,452.00
2023-05-01T10:40:24.340Z,450.00
2023-05-01T10:41:24.545Z,452.00
2023-05-01T10:42:24.369Z,454.00
2023-05-01T10:43:24.323Z,454.00
2023-05-01T10:44:24.393Z,452.00
2023-05-01T10:45:24.309Z,453.00
2023-05-01T10:46:24.340Z,453.00
2023-05-01T10:47:24.490Z,456.00
2023-05-01T10:48:24.286Z,455.00
2023-05-01T10:49:24.271Z,450.00
2023-05-01T10:50:24.339Z,449.00
2023-05-01T10:51:27.205Z,449.00
2023-05-01T10:52:24.242Z,450.00
2023-05-01T10:53:24.232Z,448.00
2023-05-01T10:54:24.226Z,448.00
2023-05-01T10:55:24.307Z,449.00
2023-05-01T10:56:24.202Z,449.00
2023-05-01T10:57:24.193Z,448.00
2023-05-01T10:58:24.187Z,451.00
2023-05-01T10:59:24.172Z,449.00
2023-05-01T11:00:24.227Z,451.00
2023-05-01T11:01:24.224Z,451.00
2023-05-01T11:02:24.189Z,450.00
2023-05-01T11:03:24.123Z,452.00
2023-05-01T11:04:24.110Z,452.00
2023-05-01T11:05:38.050Z,452.00
2023-05-01T11:06:25.265Z,453.00
2023-05-01T11:07:24.193Z,455.00
2023-05-01T11:08:24.063Z,455.00
2023-05-01T11:09:24.043Z,455.00
2023-05-01T11:10:24.039Z,456.00
2023-05-01T11:11:24.047Z,454.00
2023-05-01T11:12:24.014Z,454.00
2023-05-01T11:13:23.991Z,455.00
2023-05-01T11:14:23.974Z,456.00
2023-05-01T11:15:23.959Z,454.00
2023-05-01T11:16:24.002Z,455.00
2023-05-01T11:17:24.015Z,454.00
2023-05-01T11:18:23.918Z,452.00
2023-05-01T11:19:24.672Z,452.00
2023-05-01T11:20:23.908Z,452.00
2023-05-01T11:21:24.063Z,453.00
2023-05-01T11:22:23.953Z,452.00
2023-05-01T11:23:24.038Z,455.00
2023-05-01T11:24:24.020Z,455.00
2023-05-01T11:25:24.069Z,455.00
2023-05-01T11:26:24.181Z,450.00
2023-05-01T11:27:24.158Z,450.00
2023-05-01T11:28:24.210Z,452.00
2023-05-01T11:29:24.227Z,451.00
2023-05-01T11:30:24.284Z,450.00
2023-05-01T11:31:24.369Z,448.00
2023-05-01T11:32:24.392Z,449.00
2023-05-01T11:33:24.408Z,448.00
2023-05-01T11:34:24.385Z,450.00
2023-05-01T11:35:24.443Z,449.00
2023-05-01T11:36:24.438Z,450.00
2023-05-01T11:37:24.458Z,448.00
2023-05-01T11:38:24.527Z,447.00
2023-05-01T11:39:24.555Z,447.00
2023-05-01T11:40:24.599Z,449.00
2023-05-01T11:41:24.612Z,450.00
2023-05-01T11:42:24.698Z,454.00
2023-05-01T11:43:24.697Z,452.00
2023-05-01T11:44:24.830Z,455.00
2023-05-01T11:45:24.795Z,455.00
2023-05-01T11:46:24.905Z,456.00
2023-05-01T11:47:24.910Z,457.00
2023-05-01T11:48:24.922Z,459.00
2023-05-01T11:49:24.961Z,459.00
2023-05-01T11:50:24.988Z,456.00
2023-05-01T11:51:25.079Z,457.00
2023-05-01T11:52:25.033Z,458.00
2023-05-01T11:53:25.063Z,458.00
2023-05-01T11:54:25.079Z,459.00
2023-05-01T11:55:25.145Z,459.00
2023-05-01T11:57:25.188Z,458.00
2023-05-01T11:58:25.199Z,456.00
2023-05-01T11:59:25.228Z,459.00
2023-05-01T12:00:25.285Z,461.00
2023-05-01T12:01:25.283Z,459.00
2023-05-01T12:02:25.410Z,456.00
2023-05-01T12:03:25.474Z,457.00
2023-05-01T12:04:25.353Z,457.00
2023-05-01T12:05:25.281Z,455.00
2023-05-01T12:06:25.299Z,459.00
2023-05-01T12:07:25.285Z,458.00
2023-05-01T12:08:25.279Z,458.00
2023-05-01T12:09:25.282Z,458.00
2023-05-01T12:10:25.282Z,460.00
2023-05-01T12:11:25.266Z,459.00
2023-05-01T12:12:25.273Z,462.00
2023-05-01T12:13:25.701Z,465.00
2023-05-01T12:14:25.343Z,464.00
2023-05-01T12:15:25.348Z,465.00
2023-05-01T12:16:25.394Z,463.00
2023-05-01T12:17:25.530Z,461.00
2023-05-01T12:18:25.503Z,459.00
2023-05-01T12:19:25.443Z,458.00
2023-05-01T12:20:25.465Z,458.00
2023-05-01T12:21:25.537Z,459.00
2023-05-01T12:22:25.566Z,460.00
2023-05-01T12:23:25.592Z,461.00
2023-05-01T12:24:25.633Z,462.00
2023-05-01T12:25:25.651Z,462.00
2023-05-01T12:26:25.711Z,461.00
2023-05-01T12:27:25.680Z,458.00
2023-05-01T12:28:25.693Z,458.00
2023-05-01T12:29:25.729Z,458.00
2023-05-01T12:30:25.812Z,456.00